Time;durP1;ratioP1;P1;durP2;ratioP2;P2;SDS_P1;SDS_P2;PMS_P1;PMS_P2;Temp;Humidity;BMP_temperature;BMP_pressure;BME280_temperature;BME280_humidity;BME280_pressure;Samples;Min_cycle;Max_cycle;Signal;HPM_P1;HPM_P2
2021/12/23 00:01:53;;;;;;;17.60;9.80;;;;;;;-3.06;100.00;100949.38;6036195;29;20045;-92
2021/12/23 00:04:57;;;;;;;20.15;10.52;;;;;;;-3.04;100.00;100939.25;6002486;29;20046;-93
2021/12/23 00:08:01;;;;;;;16.48;9.13;;;;;;;-3.03;100.00;100935.88;6035876;29;20161;-93
2021/12/23 00:11:03;;;;;;;20.42;10.73;;;;;;;-2.96;100.00;100929.81;6034179;29;20049;-93
2021/12/23 00:14:11;;;;;;;19.95;10.95;;;;;;;-3.06;100.00;100930.81;6033089;29;20045;-92
2021/12/23 00:17:53;;;;;;;19.15;10.02;;;;;;;-3.07;100.00;100930.00;6020545;29;20049;-93
2021/12/23 00:24:10;;;;;;;19.77;10.68;;;;;;;-3.05;100.00;100915.63;6029767;29;20056;-93
2021/12/23 00:27:15;;;;;;;21.33;10.90;;;;;;;-3.05;100.00;100910.56;6037525;29;20052;-93
2021/12/23 00:30:19;;;;;;;19.52;10.02;;;;;;;-3.08;100.00;100903.03;6032710;29;20519;-93
2021/12/23 00:33:22;;;;;;;16.65;9.68;;;;;;;-3.04;100.00;100886.06;6016719;29;20045;-93
2021/12/23 00:36:29;;;;;;;17.60;10.00;;;;;;;-2.94;100.00;100890.09;6027781;29;20053;-93
2021/12/23 00:39:32;;;;;;;21.35;10.00;;;;;;;-2.93;100.00;100883.34;6033403;29;20050;-93
2021/12/23 00:42:34;;;;;;;18.50;9.52;;;;;;;-2.97;100.00;100869.06;6034199;29;20057;-93
2021/12/23 00:45:38;;;;;;;20.75;11.65;;;;;;;-2.98;100.00;100865.72;6028358;29;20042;-93
2021/12/23 00:48:43;;;;;;;17.58;10.25;;;;;;;-2.92;100.00;100862.22;6031421;29;20052;-92
2021/12/23 00:51:49;;;;;;;20.13;10.88;;;;;;;-2.95;100.00;100859.75;6030720;29;20120;-93
2021/12/23 00:54:52;;;;;;;22.58;11.23;;;;;;;-2.93;100.00;100843.69;6028982;29;20053;-92
2021/12/23 00:57:53;;;;;;;18.45;11.05;;;;;;;-2.91;100.00;100841.09;6032812;29;20050;-92
2021/12/23 01:01:01;;;;;;;21.65;11.38;;;;;;;-2.90;100.00;100827.59;6031625;29;20084;-92
2021/12/23 01:04:04;;;;;;;20.13;10.77;;;;;;;-2.88;100.00;100828.38;6031019;29;20049;-92
2021/12/23 01:07:06;;;;;;;22.08;10.95;;;;;;;-2.89;100.00;100822.47;6033343;29;20048;-92
2021/12/23 01:10:09;;;;;;;18.58;10.43;;;;;;;-2.89;100.00;100832.59;6015988;29;20496;-93
2021/12/23 01:13:14;;;;;;;20.05;11.40;;;;;;;-2.92;100.00;100829.31;6018993;29;20049;-93
2021/12/23 01:16:26;;;;;;;25.92;10.75;;;;;;;-2.93;100.00;100815.81;6025546;29;20056;-92
2021/12/23 01:19:36;;;;;;;18.13;10.48;;;;;;;-2.91;100.00;100811.53;6013790;29;20067;-92
2021/12/23 01:22:38;;;;;;;21.10;9.98;;;;;;;-2.83;100.00;100812.25;6011236;29;20045;-92
2021/12/23 01:25:40;;;;;;;19.95;10.45;;;;;;;-2.85;100.00;100808.91;6026750;29;20053;-93
2021/12/23 01:28:46;;;;;;;21.65;10.98;;;;;;;-2.80;100.00;100792.78;6031711;29;20544;-92
2021/12/23 01:31:48;;;;;;;20.45;10.77;;;;;;;-2.76;100.00;100774.13;6030644;29;20448;-92
2021/12/23 01:34:50;;;;;;;17.52;10.02;;;;;;;-2.77;100.00;100775.00;6029425;29;20041;-92
2021/12/23 01:37:53;;;;;;;19.95;10.82;;;;;;;-2.74;100.00;100772.38;6030193;29;20101;-92
2021/12/23 01:40:55;;;;;;;20.38;10.80;;;;;;;-2.76;100.00;100764.81;6029959;29;20053;-93
2021/12/23 01:43:57;;;;;;;19.48;10.27;;;;;;;-2.70;100.00;100784.13;6027600;29;20045;-92
2021/12/23 01:47:00;;;;;;;18.98;10.45;;;;;;;-2.75;100.00;100774.09;6018985;29;20065;-93
2021/12/23 01:50:02;;;;;;;21.58;10.73;;;;;;;-2.75;100.00;100774.09;6024621;29;20049;-92
2021/12/23 01:53:04;;;;;;;19.08;10.60;;;;;;;-2.76;100.00;100769.88;6022654;29;20643;-92
2021/12/23 01:56:07;;;;;;;18.83;10.68;;;;;;;-2.72;100.00;100770.66;6015356;29;20057;-92
2021/12/23 01:59:10;;;;;;;17.63;10.52;;;;;;;-2.71;100.00;100768.09;6018029;29;20061;-93
2021/12/23 02:02:12;;;;;;;19.30;10.50;;;;;;;-2.72;100.00;100765.59;6008372;29;20042;-92
2021/12/23 02:05:19;;;;;;;21.60;11.65;;;;;;;-2.73;100.00;100751.25;6028667;29;20048;-93
2021/12/23 02:08:21;;;;;;;19.70;10.75;;;;;;;-2.73;100.00;100749.56;6008182;29;20050;-92
2021/12/23 02:11:24;;;;;;;21.02;11.35;;;;;;;-2.76;100.00;100736.94;6016026;29;20050;-93
2021/12/23 02:14:26;;;;;;;17.75;10.45;;;;;;;-2.70;100.00;100743.59;6023991;29;20116;-93
2021/12/23 02:17:30;;;;;;;21.08;10.95;;;;;;;-2.70;100.00;100729.22;6033380;29;20038;-93
2021/12/23 02:20:35;;;;;;;21.25;10.35;;;;;;;-2.66;100.00;100740.13;6027050;29;20427;-92
2021/12/23 02:23:37;;;;;;;19.48;10.82;;;;;;;-2.69;100.00;100732.59;6031840;29;20126;-93
2021/12/23 02:26:41;;;;;;;19.25;10.68;;;;;;;-2.69;100.00;100720.75;6013080;29;20041;-92
2021/12/23 02:29:44;;;;;;;18.80;11.07;;;;;;;-2.74;100.00;100724.25;6034192;29;20098;-92
2021/12/23 02:32:46;;;;;;;20.55;10.85;;;;;;;-2.78;100.00;100731.09;6032186;29;20186;-92
2021/12/23 02:35:50;;;;;;;19.35;10.23;;;;;;;-2.78;100.00;100728.56;6016825;29;20075;-92
2021/12/23 02:38:54;;;;;;;23.45;11.50;;;;;;;-2.74;100.00;100726.78;6026083;29;20046;-92
2021/12/23 02:41:58;;;;;;;20.20;10.68;;;;;;;-2.67;100.00;100715.66;6022397;29;20401;-93
2021/12/23 02:45:03;;;;;;;20.20;10.68;;;;;;;-2.56;100.00;100710.34;6007966;29;20042;-93
2021/12/23 02:48:24;;;;;;;21.10;10.95;;;;;;;-2.51;100.00;100693.34;6025511;29;20047;-92
2021/12/23 02:51:27;;;;;;;17.73;10.90;;;;;;;-2.51;100.00;100679.00;6005347;29;20378;-92
2021/12/23 02:54:29;;;;;;;20.13;9.98;;;;;;;-2.51;100.00;100668.88;6006488;29;20060;-92
2021/12/23 02:57:32;;;;;;;20.05;11.23;;;;;;;-2.50;100.00;100669.69;6007867;29;20497;-92
2021/12/23 03:00:34;;;;;;;20.75;11.60;;;;;;;-2.50;100.00;100665.44;6004514;29;20058;-93
2021/12/23 03:03:36;;;;;;;22.83;10.45;;;;;;;-2.49;100.00;100656.97;6007406;29;20045;-92
2021/12/23 03:06:38;;;;;;;18.63;9.73;;;;;;;-2.33;100.00;100642.25;6007162;29;20148;-93
2021/12/23 03:09:43;;;;;;;18.65;10.00;;;;;;;-2.38;100.00;100641.53;6004331;29;20795;-93
2021/12/23 03:12:46;;;;;;;19.65;10.85;;;;;;;-2.36;100.00;100647.41;6005589;29;20038;-93
2021/12/23 03:15:48;;;;;;;19.73;10.63;;;;;;;-2.20;100.00;100630.94;6006941;29;20194;-92
2021/12/23 03:18:50;;;;;;;22.52;11.18;;;;;;;-2.11;100.00;100627.34;6006330;29;20049;-93
2021/12/23 03:21:55;;;;;;;19.98;10.65;;;;;;;-2.11;100.00;100626.50;5990622;29;20050;-92
2021/12/23 03:25:00;;;;;;;21.73;10.27;;;;;;;-2.19;100.00;100627.53;6006569;29;20042;-93
2021/12/23 03:28:04;;;;;;;20.25;10.45;;;;;;;-2.17;100.00;100623.25;6005086;29;20056;-93
2021/12/23 03:31:09;;;;;;;18.30;10.23;;;;;;;-2.11;100.00;100621.44;6003576;29;20421;-93
2021/12/23 03:34:11;;;;;;;19.98;10.63;;;;;;;-2.12;100.00;100622.31;6007794;29;20053;-93
2021/12/23 03:37:17;;;;;;;18.15;10.40;;;;;;;-2.17;100.00;100608.03;6007314;29;20110;-93
2021/12/23 03:40:19;;;;;;;18.65;10.32;;;;;;;-2.15;100.00;100618.16;5993187;29;20582;-93
2021/12/23 03:43:22;;;;;;;17.58;10.00;;;;;;;-2.15;100.00;100609.72;6007461;29;20773;-93
2021/12/23 03:46:24;;;;;;;17.25;10.27;;;;;;;-2.18;100.00;100592.88;6006857;29;20408;-93
2021/12/23 03:49:27;;;;;;;20.20;11.10;;;;;;;-2.14;100.00;100594.44;6010412;29;20042;-93
2021/12/23 03:52:29;;;;;;;18.75;10.55;;;;;;;-2.15;100.00;100585.19;6014798;29;20095;-93
2021/12/23 03:55:34;;;;;;;18.15;11.02;;;;;;;-2.11;100.00;100581.72;6004837;29;20523;-92
2021/12/23 03:58:36;;;;;;;19.30;10.27;;;;;;;-2.14;100.00;100570.78;6015447;29;20118;-93
2021/12/23 04:01:38;;;;;;;17.95;10.50;;;;;;;-2.13;100.00;100560.63;6011482;29;20042;-93
2021/12/23 04:04:41;;;;;;;17.48;10.70;;;;;;;-2.14;100.00;100537.84;6023318;29;20136;-92
2021/12/23 04:07:44;;;;;;;18.05;9.98;;;;;;;-2.14;100.00;100542.91;5997158;29;20080;-92
2021/12/23 04:10:46;;;;;;;17.90;10.38;;;;;;;-2.09;100.00;100543.63;6002617;29;20042;-93
2021/12/23 04:13:52;;;;;;;23.52;10.38;;;;;;;-2.12;100.00;100554.66;6025560;29;20041;-93
2021/12/23 04:16:54;;;;;;;21.70;10.60;;;;;;;-2.12;100.00;100542.00;6016852;29;20158;-92
2021/12/23 04:20:09;;;;;;;22.70;11.02;;;;;;;-2.12;100.00;100539.44;6023376;29;20041;-93
2021/12/23 04:23:11;;;;;;;20.77;11.38;;;;;;;-2.11;100.00;100533.53;6027315;29;20052;-93
2021/12/23 04:26:14;;;;;;;22.70;11.20;;;;;;;-2.10;100.00;100535.19;6001092;29;20523;-93
2021/12/23 04:29:17;;;;;;;20.35;11.18;;;;;;;-2.09;100.00;100541.91;6003926;29;20034;-93
2021/12/23 04:32:19;;;;;;;19.35;11.20;;;;;;;-2.09;100.00;100539.38;6018762;29;20163;-93
2021/12/23 04:35:22;;;;;;;21.17;10.90;;;;;;;-2.11;100.00;100525.06;5995736;29;20055;-93
2021/12/23 04:38:26;;;;;;;18.95;10.27;;;;;;;-2.08;100.00;100535.97;6013848;29;20048;-93
2021/12/23 04:41:31;;;;;;;18.33;10.25;;;;;;;-2.08;100.00;100535.16;6019092;29;20060;-93
2021/12/23 04:44:32;;;;;;;18.15;10.38;;;;;;;-2.07;100.00;100542.69;6013564;29;20532;-93
2021/12/23 04:47:35;;;;;;;20.00;10.63;;;;;;;-2.03;100.00;100534.16;6010942;29;20412;-92
2021/12/23 04:50:37;;;;;;;21.00;10.95;;;;;;;-1.98;100.00;100527.25;6022405;29;20049;-92
2021/12/23 04:53:39;;;;;;;21.50;11.02;;;;;;;-1.98;100.00;100532.31;6034004;29;20052;-93
2021/12/23 04:56:42;;;;;;;17.65;10.13;;;;;;;-1.98;100.00;100522.16;6022379;29;20064;-93
2021/12/23 04:59:44;;;;;;;17.58;10.38;;;;;;;-1.96;100.00;100519.59;6004036;29;20802;-93
2021/12/23 05:02:47;;;;;;;18.92;10.38;;;;;;;-1.97;100.00;100513.69;6019018;29;20050;-93
2021/12/23 05:05:49;;;;;;;18.30;10.27;;;;;;;-1.96;100.00;100509.47;6013130;29;20156;-92
2021/12/23 05:08:52;;;;;;;19.13;10.80;;;;;;;-1.94;100.00;100502.63;6025889;29;20045;-93
2021/12/23 05:11:58;;;;;;;18.92;10.90;;;;;;;-1.93;100.00;100501.75;6015770;29;20046;-93
2021/12/23 05:14:59;;;;;;;22.38;10.60;;;;;;;-1.88;100.00;100496.56;6008002;29;20050;-92
2021/12/23 05:18:02;;;;;;;18.95;10.57;;;;;;;-1.88;100.00;100486.41;6005691;29;20080;-93
2021/12/23 05:21:06;;;;;;;17.58;9.88;;;;;;;-1.86;100.00;100488.03;6005530;29;20081;-92
2021/12/23 05:24:08;;;;;;;22.95;11.60;;;;;;;-1.84;100.00;100476.13;6013655;29;20074;-93
2021/12/23 05:27:10;;;;;;;22.20;10.57;;;;;;;-1.81;100.00;100470.97;6020303;29;20369;-92
2021/12/23 05:30:15;;;;;;;18.05;10.60;;;;;;;-1.75;100.00;100465.72;5999253;29;20061;-92
2021/12/23 05:33:17;;;;;;;19.90;10.43;;;;;;;-1.72;100.00;100454.63;6013897;29;20038;-93
2021/12/23 05:36:19;;;;;;;24.05;10.95;;;;;;;-1.69;100.00;100453.72;6020586;29;20054;-93
2021/12/23 05:39:21;;;;;;;17.42;10.38;;;;;;;-1.67;100.00;100449.44;6020291;29;20074;-93
2021/12/23 05:42:23;;;;;;;20.70;11.23;;;;;;;-1.63;100.00;100451.84;6017014;29;20571;-93
2021/12/23 05:45:27;;;;;;;18.45;11.35;;;;;;;-1.58;100.00;100452.53;6013934;29;20041;-93
2021/12/23 05:48:29;;;;;;;19.05;10.55;;;;;;;-1.54;100.00;100456.66;6021355;29;20049;-93
2021/12/23 05:51:31;;;;;;;22.63;11.13;;;;;;;-1.57;100.00;100441.47;6021289;29;20041;-92
2021/12/23 05:54:47;;;;;;;22.05;11.52;;;;;;;-1.52;100.00;100423.59;6013090;29;20066;-93
2021/12/23 05:57:52;;;;;;;23.02;12.10;;;;;;;-1.54;100.00;100408.41;6029340;29;20049;-93
2021/12/23 06:00:55;;;;;;;21.88;11.10;;;;;;;-1.55;100.00;100363.59;6017298;29;20105;-93
2021/12/23 06:03:57;;;;;;;32.17;13.80;;;;;;;-1.45;100.00;100343.00;6012007;29;20042;-93
2021/12/23 06:06:59;;;;;;;20.98;11.18;;;;;;;-1.41;100.00;100321.72;6012381;29;20803;-93
2021/12/23 06:10:03;;;;;;;22.13;12.27;;;;;;;-1.42;100.00;100328.50;6010285;29;20038;-93
2021/12/23 06:13:06;;;;;;;22.02;12.05;;;;;;;-1.40;100.00;100346.22;6027026;29;20057;-93
2021/12/23 06:16:09;;;;;;;19.23;10.77;;;;;;;-1.39;100.00;100325.03;6028425;29;20088;-93
2021/12/23 06:19:15;;;;;;;21.33;10.32;;;;;;;-1.45;100.00;100337.94;6026148;29;20477;-93
2021/12/23 06:22:20;;;;;;;20.90;11.73;;;;;;;-1.56;100.00;100338.28;6029239;29;20046;-93
2021/12/23 06:25:22;;;;;;;22.20;12.30;;;;;;;-1.57;100.00;100339.16;6012424;29;20054;-93
2021/12/23 06:28:25;;;;;;;21.50;11.52;;;;;;;-1.69;100.00;100344.59;6005682;29;20259;-93
2021/12/23 06:31:27;;;;;;;22.33;11.73;;;;;;;-1.77;100.00;100337.25;5997386;29;20042;-93
2021/12/23 06:34:29;;;;;;;22.50;11.57;;;;;;;-1.77;100.00;100329.63;6004866;29;20052;-93
2021/12/23 06:37:31;;;;;;;20.65;11.95;;;;;;;-1.65;100.00;100336.03;6023163;29;20128;-93
2021/12/23 06:40:35;;;;;;;21.17;11.65;;;;;;;-1.72;100.00;100337.91;6016195;29;20042;-93
2021/12/23 06:43:39;;;;;;;22.02;12.25;;;;;;;-1.75;100.00;100341.38;6004920;29;20054;-93
2021/12/23 06:46:40;;;;;;;21.58;11.60;;;;;;;-1.76;100.00;100344.00;6009018;29;20042;-93
2021/12/23 06:49:50;;;;;;;22.88;12.30;;;;;;;-1.79;100.00;100352.53;6006849;29;20046;-93
2021/12/23 06:52:52;;;;;;;21.15;11.20;;;;;;;-1.76;100.00;100346.53;6030972;29;20075;-93
2021/12/23 06:55:55;;;;;;;21.05;11.52;;;;;;;-1.81;100.00;100335.69;6031519;29;20045;-92
2021/12/23 06:58:57;;;;;;;22.52;12.73;;;;;;;-1.83;100.00;100350.13;6006238;29;20041;-93
2021/12/23 07:01:59;;;;;;;23.10;13.27;;;;;;;-1.82;100.00;100313.72;6028598;29;20057;-93
2021/12/23 07:05:06;;;;;;;25.45;12.35;;;;;;;-1.71;100.00;100319.31;6029679;29;20033;-93
2021/12/23 07:08:24;;;;;;;21.83;12.02;;;;;;;-1.70;100.00;100315.06;6019938;29;20411;-93
2021/12/23 07:11:26;;;;;;;21.20;11.70;;;;;;;-1.73;100.00;100313.44;6026468;29;20400;-93
2021/12/23 07:14:28;;;;;;;24.38;12.63;;;;;;;-1.74;100.00;100310.09;6008404;29;20041;-93
2021/12/23 07:17:31;;;;;;;21.30;12.27;;;;;;;-1.72;100.00;100302.41;6015106;29;20056;-92
2021/12/23 07:20:33;;;;;;;21.50;12.00;;;;;;;-1.65;100.00;100319.09;6023251;29;20037;-93
2021/12/23 07:23:35;;;;;;;25.60;13.13;;;;;;;-1.58;100.00;100315.47;6028111;29;20090;-93
2021/12/23 07:26:38;;;;;;;23.10;11.93;;;;;;;-1.55;100.00;100312.84;6005025;29;20045;-93
2021/12/23 07:29:40;;;;;;;21.15;11.68;;;;;;;-1.55;100.00;100307.75;6008586;29;20046;-93
2021/12/23 07:32:42;;;;;;;22.38;12.15;;;;;;;-1.55;100.00;100307.75;6033383;29;20045;-93
2021/12/23 07:35:44;;;;;;;23.20;12.55;;;;;;;-1.57;100.00;100296.81;6031586;29;20841;-93
2021/12/23 07:38:46;;;;;;;22.15;12.13;;;;;;;-1.55;100.00;100292.53;6010616;29;20049;-93
2021/12/23 07:41:49;;;;;;;22.17;13.63;;;;;;;-1.48;100.00;100293.16;6025969;29;20053;-93
2021/12/23 07:45:09;;;;;;;25.88;13.82;;;;;;;-1.45;100.00;100303.22;6028442;29;20053;-93
2021/12/23 07:48:12;;;;;;;25.90;13.25;;;;;;;-1.44;100.00;100292.19;6033105;29;20042;-93
2021/12/23 07:51:14;;;;;;;22.42;12.23;;;;;;;-1.41;100.00;100306.50;6014080;29;20121;-93
2021/12/23 07:54:16;;;;;;;23.15;12.77;;;;;;;-1.40;100.00;100305.59;6032039;29;20534;-93
2021/12/23 07:57:18;;;;;;;20.83;12.07;;;;;;;-1.40;100.00;100277.69;6008240;29;20041;-93
2021/12/23 08:00:20;;;;;;;24.27;13.07;;;;;;;-1.41;100.00;100274.31;6026255;29;20041;-93
2021/12/23 08:03:23;;;;;;;27.13;13.55;;;;;;;-1.37;100.00;100262.34;6024605;29;20473;-93
2021/12/23 08:06:26;;;;;;;24.33;13.50;;;;;;;-1.37;100.00;100265.69;6022731;29;20062;-93
2021/12/23 08:09:28;;;;;;;25.83;13.25;;;;;;;-1.36;100.00;100277.53;6008845;29;20060;-93
2021/12/23 08:12:31;;;;;;;22.58;13.02;;;;;;;-1.35;100.00;100293.59;6017004;29;20114;-93
2021/12/23 08:15:33;;;;;;;26.58;15.15;;;;;;;-1.32;100.00;100278.25;6016999;29;20062;-93
2021/12/23 08:18:35;;;;;;;23.92;13.10;;;;;;;-1.30;100.00;100273.94;6018366;29;20065;-93
2021/12/23 08:21:37;;;;;;;27.23;14.32;;;;;;;-1.25;100.00;100266.19;6023829;29;20041;-93
2021/12/23 08:24:40;;;;;;;24.13;13.55;;;;;;;-1.24;100.00;100270.38;6011380;29;20609;-93
2021/12/23 08:27:43;;;;;;;22.40;12.27;;;;;;;-1.21;100.00;100285.53;5999938;29;20053;-93
2021/12/23 08:30:45;;;;;;;23.10;12.98;;;;;;;-1.21;100.00;100301.56;6028629;29;20053;-93
2021/12/23 08:33:49;;;;;;;22.30;12.80;;;;;;;-1.17;100.00;100307.38;6012889;29;20519;-93
2021/12/23 08:36:52;;;;;;;26.67;13.90;;;;;;;-1.16;100.00;100314.94;6042004;29;20042;-93
2021/12/23 08:39:56;;;;;;;23.27;13.05;;;;;;;-1.11;100.00;100302.91;6031121;29;20049;-93
2021/12/23 08:43:02;;;;;;;25.52;13.50;;;;;;;-1.06;100.00;100307.03;6023992;29;20061;-93
2021/12/23 08:46:05;;;;;;;27.63;14.48;;;;;;;-1.05;100.00;100299.31;6040115;29;20045;-93
2021/12/23 08:49:07;;;;;;;24.92;13.38;;;;;;;-1.02;100.00;100290.78;6027788;29;20056;-93
2021/12/23 08:52:13;;;;;;;26.88;14.23;;;;;;;-0.94;100.00;100263.41;6025984;29;20056;-93
2021/12/23 08:55:17;;;;;;;26.63;13.63;;;;;;;-0.84;100.00;100274.91;6018218;29;20057;-93
2021/12/23 08:58:19;;;;;;;28.60;14.15;;;;;;;-0.81;100.00;100263.78;6017672;29;20057;-92
2021/12/23 09:01:22;;;;;;;23.73;13.50;;;;;;;-0.79;100.00;100257.78;6012329;29;20057;-92
2021/12/23 09:04:25;;;;;;;26.23;13.90;;;;;;;-0.77;100.00;100243.31;6046993;29;20041;-92
2021/12/23 09:07:27;;;;;;;24.40;13.80;;;;;;;-0.73;100.00;100226.22;6029639;29;20069;-93
2021/12/23 09:10:29;;;;;;;32.42;14.77;;;;;;;-0.72;100.00;100213.47;6028404;29;20484;-92
2021/12/23 09:13:32;;;;;;;29.50;15.48;;;;;;;-0.73;100.00;100198.25;6029270;29;20057;-92
2021/12/23 09:16:34;;;;;;;25.58;14.10;;;;;;;-0.69;100.00;100184.56;6028235;29;20521;-92
2021/12/23 09:19:36;;;;;;;29.10;14.60;;;;;;;-0.63;100.00;100197.03;6011829;29;20060;-92
2021/12/23 09:22:39;;;;;;;23.90;13.45;;;;;;;-0.61;100.00;100181.72;6027864;29;20041;-92
2021/12/23 09:25:42;;;;;;;27.10;14.43;;;;;;;-0.61;100.00;100200.34;6012196;29;20056;-92
2021/12/23 09:35:30;;;;;;;25.95;14.13;;;;;;;-0.55;100.00;100154.34;6029991;29;20081;-92
2021/12/23 09:38:32;;;;;;;25.25;14.25;;;;;;;-0.58;100.00;100207.84;6037292;29;20037;-93
2021/12/23 09:41:38;;;;;;;26.02;14.85;;;;;;;-0.59;100.00;100188.41;6014413;29;20561;-90
2021/12/23 09:44:40;;;;;;;26.25;14.30;;;;;;;-0.54;100.00;100188.25;6025821;29;20160;-92
2021/12/23 09:47:43;;;;;;;28.67;15.18;;;;;;;-0.48;100.00;100195.59;6002068;29;20181;-92
2021/12/23 09:50:45;;;;;;;27.00;14.38;;;;;;;-0.49;100.00;100206.69;6012132;29;20050;-92
2021/12/23 09:54:00;;;;;;;25.83;14.38;;;;;;;-0.41;100.00;100202.13;6012610;29;20049;-92
2021/12/23 09:57:06;;;;;;;29.23;15.40;;;;;;;-0.33;100.00;100184.84;6013756;29;20054;-92
2021/12/23 10:00:12;;;;;;;26.80;15.02;;;;;;;-0.32;100.00;100181.41;6026026;29;20049;-92
2021/12/23 10:03:17;;;;;;;27.10;14.82;;;;;;;-0.24;100.00;100189.56;6026564;29;20049;-92
2021/12/23 10:06:19;;;;;;;26.17;14.75;;;;;;;-0.25;100.00;100184.53;6009146;29;20052;-92
2021/12/23 10:33:44;;;;;;;30.95;15.98;;;;;;;0.07;100.00;100129.78;6000397;29;20050;-92
2021/12/23 10:40:19;;;;;;;29.90;15.60;;;;;;;0.27;100.00;100123.03;6025568;29;20049;-92
2021/12/23 10:43:26;;;;;;;31.10;16.23;;;;;;;0.25;100.00;100125.66;6017505;29;20411;-91
2021/12/23 10:46:40;;;;;;;26.00;15.45;;;;;;;0.29;100.00;100127.16;6012968;29;20526;-92
2021/12/23 10:50:38;;;;;;;26.50;16.08;;;;;;;0.27;100.00;100116.22;6022030;29;20042;-92
2021/12/23 11:00:46;;;;;;;28.75;16.52;;;;;;;0.23;100.00;100102.00;6027348;29;20046;-92
2021/12/23 11:03:51;;;;;;;29.65;15.40;;;;;;;0.23;100.00;100094.38;6037227;29;20048;-92
2021/12/23 11:07:19;;;;;;;28.40;15.55;;;;;;;0.28;100.00;100092.44;6031011;29;20038;-92
2021/12/23 11:31:39;;;;;;;;;;;;;;;0.31;100.00;100035.47;6031906;29;20389;-92
2021/12/23 11:40:55;;;;;;;30.17;14.98;;;;;;;0.39;100.00;100021.50;6039732;29;20053;-93
2021/12/23 11:44:00;;;;;;;28.77;15.15;;;;;;;0.39;100.00;100008.78;6015215;29;20056;-93
2021/12/23 11:47:10;;;;;;;28.13;15.10;;;;;;;0.45;100.00;100005.16;6041484;29;20049;-91
2021/12/23 11:50:29;;;;;;;29.10;15.23;;;;;;;0.43;100.00;100001.84;6017956;29;20468;-93
2021/12/23 11:53:34;;;;;;;28.95;15.57;;;;;;;0.42;100.00;99990.84;6009505;29;20046;-92
2021/12/23 11:56:40;;;;;;;28.75;15.95;;;;;;;0.37;100.00;99992.75;6013397;29;20072;-93
2021/12/23 11:59:50;;;;;;;30.00;15.63;;;;;;;0.35;100.00;99991.19;6012873;29;20050;-92
2021/12/23 12:03:01;;;;;;;28.48;15.95;;;;;;;0.31;100.00;99992.22;6047605;29;20056;-92
2021/12/23 12:06:31;;;;;;;26.30;15.30;;;;;;;0.26;100.00;99979.69;5985012;29;20046;-93
2021/12/23 12:09:33;;;;;;;31.13;16.52;;;;;;;0.25;100.00;99978.03;5993866;29;20040;-92
2021/12/23 12:12:57;;;;;;;26.05;14.60;;;;;;;0.24;100.00;99957.75;5973600;29;20058;-93
2021/12/23 12:16:01;;;;;;;26.88;14.60;;;;;;;0.28;100.00;99947.34;5979925;29;20421;-93
2021/12/23 12:19:10;;;;;;;31.60;16.30;;;;;;;0.29;100.00;99938.00;6009144;24;20846;-95
2021/12/23 12:22:55;;;;;;;29.35;16.00;;;;;;;0.27;100.00;99915.16;6015754;29;20058;-95
2021/12/23 12:26:25;;;;;;;29.90;15.93;;;;;;;0.22;100.00;99912.00;6025217;29;20488;-95
2021/12/23 12:29:36;;;;;;;32.87;16.90;;;;;;;0.17;100.00;99913.94;6029508;29;20046;-95
2021/12/23 12:32:41;;;;;;;33.10;16.47;;;;;;;0.14;100.00;99898.81;6042993;29;20346;-95
2021/12/23 12:36:07;;;;;;;34.95;16.45;;;;;;;0.10;100.00;99898.13;6041836;29;20733;-95
2021/12/23 12:39:11;;;;;;;27.83;14.88;;;;;;;0.12;100.00;99898.88;6016660;29;20056;-95
2021/12/23 12:42:31;;;;;;;29.17;14.95;;;;;;;0.20;100.00;99896.81;6023546;29;20061;-95
2021/12/23 12:45:35;;;;;;;33.67;16.07;;;;;;;0.17;100.00;99896.97;6022620;29;20504;-95
2021/12/23 12:48:58;;;;;;;29.45;15.98;;;;;;;0.16;100.00;99891.94;6022076;29;20068;-95
2021/12/23 12:52:31;;;;;;;26.25;15.50;;;;;;;0.15;100.00;99883.47;6035152;29;20065;-95
2021/12/23 12:55:36;;;;;;;;;;;;;;;0.12;100.00;99864.97;6015268;29;20537;-95
2021/12/23 12:58:39;;;;;;;26.40;14.30;;;;;;;0.02;100.00;99864.56;6019817;29;19951;-95
2021/12/23 13:01:46;;;;;;;31.83;17.23;;;;;;;-0.05;100.00;99850.47;6018865;29;20137;-95
2021/12/23 13:05:06;;;;;;;32.45;16.70;;;;;;;-0.14;100.00;99853.47;6023708;29;20073;-95
2021/12/23 13:08:43;;;;;;;31.20;15.18;;;;;;;-0.20;100.00;99871.53;6020978;29;20057;-95
2021/12/23 13:13:01;;;;;;;33.42;16.85;;;;;;;-0.29;100.00;99872.78;6034925;29;20427;-95
2021/12/23 13:16:29;;;;;;;29.75;15.93;;;;;;;-0.34;100.00;99846.72;6036108;29;20053;-95
2021/12/23 13:19:42;;;;;;;31.52;16.77;;;;;;;-0.33;100.00;99833.13;6056025;23;20069;-91
2021/12/23 13:23:12;;;;;;;30.27;15.73;;;;;;;-0.41;100.00;99828.38;6015975;29;20719;-90
2021/12/23 13:26:17;;;;;;;31.07;15.77;;;;;;;-0.44;100.00;99816.63;6019596;29;20511;-91
2021/12/23 13:29:25;;;;;;;35.30;16.85;;;;;;;-0.42;100.00;99824.19;6019621;29;20053;-91
2021/12/23 13:32:27;;;;;;;36.20;17.60;;;;;;;-0.43;100.00;99822.53;6004437;29;20420;-90
2021/12/23 13:35:31;;;;;;;31.67;16.15;;;;;;;-0.47;100.00;99824.41;6013198;29;20062;-90
2021/12/23 13:38:55;;;;;;;37.30;17.67;;;;;;;-0.50;100.00;99806.75;6000348;29;20155;-91
2021/12/23 13:41:59;;;;;;;37.05;18.77;;;;;;;-0.49;100.00;99799.94;6008094;29;20511;-90
2021/12/23 13:45:02;;;;;;;36.13;18.13;;;;;;;-0.46;100.00;99792.16;6014375;29;20042;-90
2021/12/23 13:48:04;;;;;;;32.30;17.35;;;;;;;-0.43;100.00;99792.84;6010020;29;20121;-90
2021/12/23 13:51:07;;;;;;;34.75;16.67;;;;;;;-0.40;100.00;99779.16;6010189;29;20052;-91
2021/12/23 13:54:17;;;;;;;30.98;17.65;;;;;;;-0.45;100.00;99803.97;6020152;29;20045;-91
2021/12/23 13:57:20;;;;;;;38.38;18.60;;;;;;;-0.45;100.00;99801.44;6018497;29;20488;-91
2021/12/23 14:00:24;;;;;;;33.80;16.73;;;;;;;-0.46;100.00;99815.06;6017256;29;20042;-91
2021/12/23 14:03:27;;;;;;;36.05;17.05;;;;;;;-0.54;100.00;99789.16;6008418;29;20049;-91
2021/12/23 14:06:29;;;;;;;34.78;17.55;;;;;;;-0.50;100.00;99775.41;6010283;29;20099;-91
2021/12/23 14:09:38;;;;;;;34.63;17.85;;;;;;;-0.52;100.00;99778.03;6024995;29;20050;-91
2021/12/23 14:12:55;;;;;;;36.53;18.45;;;;;;;-0.46;100.00;99797.25;6007863;29;20050;-91
2021/12/23 14:15:57;;;;;;;35.50;17.77;;;;;;;-0.48;100.00;99793.94;6020147;29;20042;-91
2021/12/23 14:20:08;;;;;;;33.35;17.50;;;;;;;-0.53;100.00;99788.25;6001861;29;20069;-91
2021/12/23 14:23:20;;;;;;;36.85;17.63;;;;;;;-0.56;100.00;99757.91;6019337;29;20050;-91
2021/12/23 14:26:29;;;;;;;37.00;16.90;;;;;;;-0.58;100.00;99754.59;6016817;29;20054;-91
2021/12/23 14:29:33;;;;;;;35.65;18.35;;;;;;;-0.59;100.00;99742.78;6010411;29;20053;-91
2021/12/23 14:32:35;;;;;;;36.60;17.77;;;;;;;-0.56;100.00;99742.66;6021099;29;20165;-91
2021/12/23 14:35:37;;;;;;;33.25;16.80;;;;;;;-0.56;100.00;99722.31;6034493;29;20053;-92
2021/12/23 14:38:42;;;;;;;34.35;17.45;;;;;;;-0.60;100.00;99708.09;6021688;29;20155;-92
2021/12/23 14:41:52;;;;;;;36.75;18.00;;;;;;;-0.63;100.00;99721.75;6019995;29;20049;-91
2021/12/23 14:45:03;;;;;;;35.40;18.35;;;;;;;-0.61;100.00;99747.94;6036099;29;20052;-91
2021/12/23 14:48:18;;;;;;;35.05;17.45;;;;;;;-0.64;100.00;99750.63;6031063;29;20241;-91
2021/12/23 14:51:37;;;;;;;39.25;17.13;;;;;;;-0.66;100.00;99740.50;6023013;29;20535;-91
2021/12/23 14:54:55;;;;;;;36.85;17.20;;;;;;;-0.67;100.00;99735.53;6033860;29;20150;-91
2021/12/23 14:57:59;;;;;;;35.05;16.98;;;;;;;-0.64;100.00;99721.84;6028073;29;20055;-92
2021/12/23 15:01:01;;;;;;;35.03;18.30;;;;;;;-0.67;100.00;99723.63;6050478;29;20049;-91
2021/12/23 15:04:08;;;;;;;32.00;17.27;;;;;;;-0.68;100.00;99703.38;6054026;29;20045;-92
2021/12/23 15:07:11;;;;;;;34.67;17.95;;;;;;;-0.63;100.00;99683.66;6054503;29;20463;-92
2021/12/23 15:10:25;;;;;;;33.95;18.35;;;;;;;-0.65;100.00;99690.50;6040240;29;20117;-92
2021/12/23 15:13:31;;;;;;;38.00;18.48;;;;;;;-0.59;100.00;99664.00;6036197;29;20061;-92